sensor_id;sensor_type;location;lat;lon;timestamp;temperature;humidity
11540;DHT22;5826;54.756;9.192;2023-11-21T00:01:53;9.30;91.70
11540;DHT22;5826;54.756;9.192;2023-11-21T00:04:18;10.20;92.00
11540;DHT22;5826;54.756;9.192;2023-11-21T00:06:44;9.30;91.80
11540;DHT22;5826;54.756;9.192;2023-11-21T00:09:12;9.30;91.80
11540;DHT22;5826;54.756;9.192;2023-11-21T00:11:38;9.30;91.80
11540;DHT22;5826;54.756;9.192;2023-11-21T00:14:04;9.20;92.00
11540;DHT22;5826;54.756;9.192;2023-11-21T00:16:29;9.30;91.80
11540;DHT22;5826;54.756;9.192;2023-11-21T00:18:55;9.30;91.80
11540;DHT22;5826;54.756;9.192;2023-11-21T00:21:20;9.30;91.70
11540;DHT22;5826;54.756;9.192;2023-11-21T00:23:46;9.30;91.70
11540;DHT22;5826;54.756;9.192;2023-11-21T00:26:11;9.30;91.70
11540;DHT22;5826;54.756;9.192;2023-11-21T00:28:37;9.30;91.70
11540;DHT22;5826;54.756;9.192;2023-11-21T00:31:02;9.30;91.70
11540;DHT22;5826;54.756;9.192;2023-11-21T00:33:29;9.30;91.70
11540;DHT22;5826;54.756;9.192;2023-11-21T00:35:54;9.30;91.70
11540;DHT22;5826;54.756;9.192;2023-11-21T00:38:20;9.30;91.70
11540;DHT22;5826;54.756;9.192;2023-11-21T00:40:46;9.30;91.70
11540;DHT22;5826;54.756;9.192;2023-11-21T00:43:11;9.30;91.70
11540;DHT22;5826;54.756;9.192;2023-11-21T00:45:37;9.30;91.70
11540;DHT22;5826;54.756;9.192;2023-11-21T00:48:03;9.30;91.70
11540;DHT22;5826;54.756;9.192;2023-11-21T00:50:30;9.30;91.70
11540;DHT22;5826;54.756;9.192;2023-11-21T00:52:56;9.30;91.80
11540;DHT22;5826;54.756;9.192;2023-11-21T00:55:21;9.30;91.70
11540;DHT22;5826;54.756;9.192;2023-11-21T00:57:47;9.30;91.80
11540;DHT22;5826;54.756;9.192;2023-11-21T01:00:13;9.30;91.80
11540;DHT22;5826;54.756;9.192;2023-11-21T01:02:45;9.30;91.80
11540;DHT22;5826;54.756;9.192;2023-11-21T01:05:10;9.30;91.90
11540;DHT22;5826;54.756;9.192;2023-11-21T01:07:36;9.30;91.90
11540;DHT22;5826;54.756;9.192;2023-11-21T01:10:03;9.30;91.80
11540;DHT22;5826;54.756;9.192;2023-11-21T01:12:28;9.20;91.80
11540;DHT22;5826;54.756;9.192;2023-11-21T01:14:54;9.30;91.90
11540;DHT22;5826;54.756;9.192;2023-11-21T01:17:20;9.30;91.90
11540;DHT22;5826;54.756;9.192;2023-11-21T01:19:47;9.30;91.90
11540;DHT22;5826;54.756;9.192;2023-11-21T01:22:13;9.20;91.80
11540;DHT22;5826;54.756;9.192;2023-11-21T01:24:39;9.20;91.80
11540;DHT22;5826;54.756;9.192;2023-11-21T01:27:04;9.20;91.80
11540;DHT22;5826;54.756;9.192;2023-11-21T01:29:30;9.20;91.80
11540;DHT22;5826;54.756;9.192;2023-11-21T01:31:55;9.20;91.70
11540;DHT22;5826;54.756;9.192;2023-11-21T01:34:22;9.20;91.70
11540;DHT22;5826;54.756;9.192;2023-11-21T01:36:48;9.20;91.80
11540;DHT22;5826;54.756;9.192;2023-11-21T01:39:14;9.20;91.80
11540;DHT22;5826;54.756;9.192;2023-11-21T01:41:41;9.20;91.80
11540;DHT22;5826;54.756;9.192;2023-11-21T01:44:09;9.20;91.80
11540;DHT22;5826;54.756;9.192;2023-11-21T01:46:35;9.20;91.80
11540;DHT22;5826;54.756;9.192;2023-11-21T01:49:01;9.20;91.80
11540;DHT22;5826;54.756;9.192;2023-11-21T01:51:26;9.20;91.80
11540;DHT22;5826;54.756;9.192;2023-11-21T01:53:52;9.10;91.80
11540;DHT22;5826;54.756;9.192;2023-11-21T01:56:18;9.10;91.80
11540;DHT22;5826;54.756;9.192;2023-11-21T01:58:43;9.10;91.90
11540;DHT22;5826;54.756;9.192;2023-11-21T02:01:09;9.10;91.90
11540;DHT22;5826;54.756;9.192;2023-11-21T02:03:35;9.10;91.90
11540;DHT22;5826;54.756;9.192;2023-11-21T02:06:01;9.10;91.90
11540;DHT22;5826;54.756;9.192;2023-11-21T02:08:27;9.10;91.90
11540;DHT22;5826;54.756;9.192;2023-11-21T02:10:52;9.10;91.90
11540;DHT22;5826;54.756;9.192;2023-11-21T02:13:18;9.00;91.90
11540;DHT22;5826;54.756;9.192;2023-11-21T02:15:43;9.10;91.90
11540;DHT22;5826;54.756;9.192;2023-11-21T02:18:09;9.10;91.90
11540;DHT22;5826;54.756;9.192;2023-11-21T02:20:36;9.10;91.90
11540;DHT22;5826;54.756;9.192;2023-11-21T02:23:04;9.10;91.90
11540;DHT22;5826;54.756;9.192;2023-11-21T02:25:31;9.10;91.90
11540;DHT22;5826;54.756;9.192;2023-11-21T02:28:01;9.10;91.90
11540;DHT22;5826;54.756;9.192;2023-11-21T02:30:27;9.00;91.90
11540;DHT22;5826;54.756;9.192;2023-11-21T02:32:54;9.10;91.90
11540;DHT22;5826;54.756;9.192;2023-11-21T02:35:22;9.00;91.80
11540;DHT22;5826;54.756;9.192;2023-11-21T02:37:49;9.00;91.90
11540;DHT22;5826;54.756;9.192;2023-11-21T02:40:15;9.00;92.00
11540;DHT22;5826;54.756;9.192;2023-11-21T02:42:44;9.00;91.90
11540;DHT22;5826;54.756;9.192;2023-11-21T02:45:10;8.90;91.80
11540;DHT22;5826;54.756;9.192;2023-11-21T02:47:38;8.90;91.90
11540;DHT22;5826;54.756;9.192;2023-11-21T02:50:05;9.00;91.90
11540;DHT22;5826;54.756;9.192;2023-11-21T02:52:33;9.00;91.90
11540;DHT22;5826;54.756;9.192;2023-11-21T02:54:59;9.00;91.90
11540;DHT22;5826;54.756;9.192;2023-11-21T02:57:24;9.00;91.80
11540;DHT22;5826;54.756;9.192;2023-11-21T02:59:50;8.90;91.80
11540;DHT22;5826;54.756;9.192;2023-11-21T03:02:16;9.00;91.80
11540;DHT22;5826;54.756;9.192;2023-11-21T03:04:41;8.90;91.80
11540;DHT22;5826;54.756;9.192;2023-11-21T03:07:08;8.90;91.80
11540;DHT22;5826;54.756;9.192;2023-11-21T03:09:34;8.90;91.80
11540;DHT22;5826;54.756;9.192;2023-11-21T03:11:59;8.90;91.90
11540;DHT22;5826;54.756;9.192;2023-11-21T03:14:25;9.00;91.80
11540;DHT22;5826;54.756;9.192;2023-11-21T03:16:50;8.90;91.70
11540;DHT22;5826;54.756;9.192;2023-11-21T03:19:16;8.90;91.70
11540;DHT22;5826;54.756;9.192;2023-11-21T03:21:42;8.80;91.80
11540;DHT22;5826;54.756;9.192;2023-11-21T03:24:08;8.90;91.90
11540;DHT22;5826;54.756;9.192;2023-11-21T03:26:33;8.80;91.80
11540;DHT22;5826;54.756;9.192;2023-11-21T03:28:59;8.80;91.80
11540;DHT22;5826;54.756;9.192;2023-11-21T03:31:24;8.80;91.70
11540;DHT22;5826;54.756;9.192;2023-11-21T03:33:50;8.80;91.80
11540;DHT22;5826;54.756;9.192;2023-11-21T03:36:15;8.80;91.80
11540;DHT22;5826;54.756;9.192;2023-11-21T03:38:41;8.80;91.90
11540;DHT22;5826;54.756;9.192;2023-11-21T03:41:07;8.80;91.80
11540;DHT22;5826;54.756;9.192;2023-11-21T03:43:35;8.80;91.80
11540;DHT22;5826;54.756;9.192;2023-11-21T03:46:01;8.80;91.70
11540;DHT22;5826;54.756;9.192;2023-11-21T03:48:27;8.80;91.70
11540;DHT22;5826;54.756;9.192;2023-11-21T03:50:52;8.80;91.70
11540;DHT22;5826;54.756;9.192;2023-11-21T03:53:18;8.80;91.70
11540;DHT22;5826;54.756;9.192;2023-11-21T03:55:43;8.80;91.70
11540;DHT22;5826;54.756;9.192;2023-11-21T03:58:09;8.80;91.60
11540;DHT22;5826;54.756;9.192;2023-11-21T04:00:34;8.80;91.60
11540;DHT22;5826;54.756;9.192;2023-11-21T04:03:00;8.80;91.70
11540;DHT22;5826;54.756;9.192;2023-11-21T04:05:25;8.80;91.60
11540;DHT22;5826;54.756;9.192;2023-11-21T04:07:51;8.80;91.70
11540;DHT22;5826;54.756;9.192;2023-11-21T04:10:16;8.80;91.70
11540;DHT22;5826;54.756;9.192;2023-11-21T04:12:42;8.80;91.60
11540;DHT22;5826;54.756;9.192;2023-11-21T04:15:08;8.80;91.70
11540;DHT22;5826;54.756;9.192;2023-11-21T04:17:35;8.80;91.60
11540;DHT22;5826;54.756;9.192;2023-11-21T04:20:02;8.80;91.60
11540;DHT22;5826;54.756;9.192;2023-11-21T04:22:28;8.80;91.60
11540;DHT22;5826;54.756;9.192;2023-11-21T04:24:53;8.80;91.60
11540;DHT22;5826;54.756;9.192;2023-11-21T04:27:21;8.80;91.60
11540;DHT22;5826;54.756;9.192;2023-11-21T04:29:46;8.70;91.60
11540;DHT22;5826;54.756;9.192;2023-11-21T04:32:12;8.70;91.70
11540;DHT22;5826;54.756;9.192;2023-11-21T04:34:38;8.70;91.80
11540;DHT22;5826;54.756;9.192;2023-11-21T04:37:03;8.70;91.80
11540;DHT22;5826;54.756;9.192;2023-11-21T04:39:31;8.70;91.70
11540;DHT22;5826;54.756;9.192;2023-11-21T04:41:57;8.70;92.00
11540;DHT22;5826;54.756;9.192;2023-11-21T04:44:22;8.70;91.70
11540;DHT22;5826;54.756;9.192;2023-11-21T04:46:48;8.70;91.60
11540;DHT22;5826;54.756;9.192;2023-11-21T04:49:14;8.70;91.60
11540;DHT22;5826;54.756;9.192;2023-11-21T04:51:40;8.80;91.60
11540;DHT22;5826;54.756;9.192;2023-11-21T04:54:06;8.80;91.60
11540;DHT22;5826;54.756;9.192;2023-11-21T04:56:32;8.80;91.70
11540;DHT22;5826;54.756;9.192;2023-11-21T04:58:57;8.70;91.60
11540;DHT22;5826;54.756;9.192;2023-11-21T05:01:23;8.70;91.70
11540;DHT22;5826;54.756;9.192;2023-11-21T05:03:48;8.70;91.60
11540;DHT22;5826;54.756;9.192;2023-11-21T05:06:14;8.60;91.60
11540;DHT22;5826;54.756;9.192;2023-11-21T05:08:40;8.60;91.70
11540;DHT22;5826;54.756;9.192;2023-11-21T05:11:06;8.60;91.70
11540;DHT22;5826;54.756;9.192;2023-11-21T05:13:34;8.60;91.80
11540;DHT22;5826;54.756;9.192;2023-11-21T05:15:59;8.60;91.80
11540;DHT22;5826;54.756;9.192;2023-11-21T05:18:25;8.60;91.80
11540;DHT22;5826;54.756;9.192;2023-11-21T05:20:52;8.60;91.80
11540;DHT22;5826;54.756;9.192;2023-11-21T05:23:19;8.60;91.70
11540;DHT22;5826;54.756;9.192;2023-11-21T05:25:44;8.60;91.70
11540;DHT22;5826;54.756;9.192;2023-11-21T05:28:11;8.60;91.60
11540;DHT22;5826;54.756;9.192;2023-11-21T05:30:37;8.60;91.60
11540;DHT22;5826;54.756;9.192;2023-11-21T05:33:04;8.60;91.70
11540;DHT22;5826;54.756;9.192;2023-11-21T05:35:30;8.50;91.60
11540;DHT22;5826;54.756;9.192;2023-11-21T05:37:56;8.40;91.80
11540;DHT22;5826;54.756;9.192;2023-11-21T05:40:21;8.40;91.90
11540;DHT22;5826;54.756;9.192;2023-11-21T05:42:48;8.40;91.90
11540;DHT22;5826;54.756;9.192;2023-11-21T05:45:13;8.40;92.00
11540;DHT22;5826;54.756;9.192;2023-11-21T05:47:44;8.40;91.90
11540;DHT22;5826;54.756;9.192;2023-11-21T05:50:12;8.40;91.90
11540;DHT22;5826;54.756;9.192;2023-11-21T05:52:41;8.40;91.80
11540;DHT22;5826;54.756;9.192;2023-11-21T05:55:07;8.50;91.90
11540;DHT22;5826;54.756;9.192;2023-11-21T05:57:37;8.40;91.70
11540;DHT22;5826;54.756;9.192;2023-11-21T06:00:14;8.40;91.80
11540;DHT22;5826;54.756;9.192;2023-11-21T06:02:40;8.40;91.80
11540;DHT22;5826;54.756;9.192;2023-11-21T06:05:09;8.40;91.80
11540;DHT22;5826;54.756;9.192;2023-11-21T06:07:34;8.40;91.80
11540;DHT22;5826;54.756;9.192;2023-11-21T06:10:01;8.40;91.80
11540;DHT22;5826;54.756;9.192;2023-11-21T06:12:28;8.40;91.70
11540;DHT22;5826;54.756;9.192;2023-11-21T06:14:53;8.40;91.80
11540;DHT22;5826;54.756;9.192;2023-11-21T06:17:19;8.40;91.70
11540;DHT22;5826;54.756;9.192;2023-11-21T06:19:45;8.40;91.70
11540;DHT22;5826;54.756;9.192;2023-11-21T06:22:11;8.40;91.80
11540;DHT22;5826;54.756;9.192;2023-11-21T06:24:37;8.40;91.70
11540;DHT22;5826;54.756;9.192;2023-11-21T06:27:04;8.40;91.80
11540;DHT22;5826;54.756;9.192;2023-11-21T06:29:30;8.40;91.80
11540;DHT22;5826;54.756;9.192;2023-11-21T06:31:56;8.40;91.80
11540;DHT22;5826;54.756;9.192;2023-11-21T06:34:21;8.40;91.60
11540;DHT22;5826;54.756;9.192;2023-11-21T06:36:47;8.40;91.60
11540;DHT22;5826;54.756;9.192;2023-11-21T06:39:12;8.40;91.60
11540;DHT22;5826;54.756;9.192;2023-11-21T06:41:40;8.40;91.50
11540;DHT22;5826;54.756;9.192;2023-11-21T06:44:06;8.40;91.50
11540;DHT22;5826;54.756;9.192;2023-11-21T06:46:31;8.40;91.60
11540;DHT22;5826;54.756;9.192;2023-11-21T06:48:57;8.30;91.60
11540;DHT22;5826;54.756;9.192;2023-11-21T06:51:22;8.30;91.60
11540;DHT22;5826;54.756;9.192;2023-11-21T06:53:48;8.30;91.70
11540;DHT22;5826;54.756;9.192;2023-11-21T06:56:17;8.30;91.70
11540;DHT22;5826;54.756;9.192;2023-11-21T06:58:45;8.30;91.80
11540;DHT22;5826;54.756;9.192;2023-11-21T07:01:11;8.30;91.70
11540;DHT22;5826;54.756;9.192;2023-11-21T07:03:37;8.30;91.70
11540;DHT22;5826;54.756;9.192;2023-11-21T07:06:03;8.30;91.70
11540;DHT22;5826;54.756;9.192;2023-11-21T07:08:28;8.30;91.60
11540;DHT22;5826;54.756;9.192;2023-11-21T07:10:54;8.30;91.60
11540;DHT22;5826;54.756;9.192;2023-11-21T07:13:19;8.30;91.60
11540;DHT22;5826;54.756;9.192;2023-11-21T07:15:45;8.30;91.70
11540;DHT22;5826;54.756;9.192;2023-11-21T07:18:10;8.30;91.70
11540;DHT22;5826;54.756;9.192;2023-11-21T07:20:36;8.20;91.60
11540;DHT22;5826;54.756;9.192;2023-11-21T07:23:02;8.30;91.70
11540;DHT22;5826;54.756;9.192;2023-11-21T07:25:29;8.20;91.60
11540;DHT22;5826;54.756;9.192;2023-11-21T07:27:54;8.20;91.70
11540;DHT22;5826;54.756;9.192;2023-11-21T07:30:20;8.20;91.70
11540;DHT22;5826;54.756;9.192;2023-11-21T07:32:48;8.20;91.70
11540;DHT22;5826;54.756;9.192;2023-11-21T07:35:14;8.20;91.70
11540;DHT22;5826;54.756;9.192;2023-11-21T07:37:39;8.20;91.70
11540;DHT22;5826;54.756;9.192;2023-11-21T07:40:05;8.20;91.70
11540;DHT22;5826;54.756;9.192;2023-11-21T07:42:34;8.10;91.70
11540;DHT22;5826;54.756;9.192;2023-11-21T07:44:59;8.10;91.90
11540;DHT22;5826;54.756;9.192;2023-11-21T07:47:25;8.10;91.90
11540;DHT22;5826;54.756;9.192;2023-11-21T07:49:53;8.00;91.80
11540;DHT22;5826;54.756;9.192;2023-11-21T07:52:18;8.00;91.90
11540;DHT22;5826;54.756;9.192;2023-11-21T07:54:46;8.00;92.20
11540;DHT22;5826;54.756;9.192;2023-11-21T07:57:12;8.00;91.90
11540;DHT22;5826;54.756;9.192;2023-11-21T07:59:39;8.00;92.00
11540;DHT22;5826;54.756;9.192;2023-11-21T08:02:06;8.00;91.90
11540;DHT22;5826;54.756;9.192;2023-11-21T08:04:31;8.10;91.80
11540;DHT22;5826;54.756;9.192;2023-11-21T08:06:57;8.10;91.60
11540;DHT22;5826;54.756;9.192;2023-11-21T08:09:23;8.10;91.70
11540;DHT22;5826;54.756;9.192;2023-11-21T08:11:49;8.10;91.70
11540;DHT22;5826;54.756;9.192;2023-11-21T08:14:15;8.10;91.70
11540;DHT22;5826;54.756;9.192;2023-11-21T08:16:40;8.10;91.60
11540;DHT22;5826;54.756;9.192;2023-11-21T08:19:06;8.10;91.70
11540;DHT22;5826;54.756;9.192;2023-11-21T08:21:31;8.10;91.60
11540;DHT22;5826;54.756;9.192;2023-11-21T08:23:57;8.00;91.50
11540;DHT22;5826;54.756;9.192;2023-11-21T08:26:22;8.00;91.70
11540;DHT22;5826;54.756;9.192;2023-11-21T08:28:49;8.00;91.60
11540;DHT22;5826;54.756;9.192;2023-11-21T08:31:14;8.10;91.60
11540;DHT22;5826;54.756;9.192;2023-11-21T08:33:40;8.10;91.60
11540;DHT22;5826;54.756;9.192;2023-11-21T08:36:09;8.10;91.60
11540;DHT22;5826;54.756;9.192;2023-11-21T08:38:35;8.20;91.50
11540;DHT22;5826;54.756;9.192;2023-11-21T08:41:07;8.30;91.40
11540;DHT22;5826;54.756;9.192;2023-11-21T08:43:36;8.30;91.30
11540;DHT22;5826;54.756;9.192;2023-11-21T08:46:06;8.30;91.40
11540;DHT22;5826;54.756;9.192;2023-11-21T08:48:31;8.30;91.30
11540;DHT22;5826;54.756;9.192;2023-11-21T08:50:57;8.20;91.30
11540;DHT22;5826;54.756;9.192;2023-11-21T08:53:22;8.30;91.30
11540;DHT22;5826;54.756;9.192;2023-11-21T08:55:48;8.30;91.30
11540;DHT22;5826;54.756;9.192;2023-11-21T08:58:15;8.20;91.30
11540;DHT22;5826;54.756;9.192;2023-11-21T09:00:41;8.20;91.40
11540;DHT22;5826;54.756;9.192;2023-11-21T09:03:07;8.20;91.40
11540;DHT22;5826;54.756;9.192;2023-11-21T09:05:39;8.30;91.40
11540;DHT22;5826;54.756;9.192;2023-11-21T09:08:05;8.30;91.30
11540;DHT22;5826;54.756;9.192;2023-11-21T09:10:33;8.30;91.30
11540;DHT22;5826;54.756;9.192;2023-11-21T09:13:01;8.30;91.30
11540;DHT22;5826;54.756;9.192;2023-11-21T09:15:27;8.30;91.30
11540;DHT22;5826;54.756;9.192;2023-11-21T09:17:53;8.30;91.40
11540;DHT22;5826;54.756;9.192;2023-11-21T09:20:18;8.40;91.40
11540;DHT22;5826;54.756;9.192;2023-11-21T09:22:48;8.50;91.20
11540;DHT22;5826;54.756;9.192;2023-11-21T09:25:14;8.50;91.10
11540;DHT22;5826;54.756;9.192;2023-11-21T09:27:39;8.50;90.90
11540;DHT22;5826;54.756;9.192;2023-11-21T09:30:06;8.60;91.00
11540;DHT22;5826;54.756;9.192;2023-11-21T09:32:34;8.60;90.90
11540;DHT22;5826;54.756;9.192;2023-11-21T09:35:02;8.60;90.90
11540;DHT22;5826;54.756;9.192;2023-11-21T09:37:28;8.60;90.90
11540;DHT22;5826;54.756;9.192;2023-11-21T09:39:53;8.70;90.80
11540;DHT22;5826;54.756;9.192;2023-11-21T09:42:38;8.70;90.80
11540;DHT22;5826;54.756;9.192;2023-11-21T09:45:36;8.80;90.70
11540;DHT22;5826;54.756;9.192;2023-11-21T09:48:04;9.00;90.70
11540;DHT22;5826;54.756;9.192;2023-11-21T09:50:31;9.10;90.50
11540;DHT22;5826;54.756;9.192;2023-11-21T09:55:35;9.20;90.20
11540;DHT22;5826;54.756;9.192;2023-11-21T09:58:05;9.20;90.10
11540;DHT22;5826;54.756;9.192;2023-11-21T10:00:33;9.20;90.30
11540;DHT22;5826;54.756;9.192;2023-11-21T10:02:59;9.20;90.10
11540;DHT22;5826;54.756;9.192;2023-11-21T10:05:25;9.10;89.60
11540;DHT22;5826;54.756;9.192;2023-11-21T10:07:51;9.10;90.20
11540;DHT22;5826;54.756;9.192;2023-11-21T10:10:19;9.10;90.00
11540;DHT22;5826;54.756;9.192;2023-11-21T10:12:51;9.20;90.20
11540;DHT22;5826;54.756;9.192;2023-11-21T10:15:21;9.20;90.10
11540;DHT22;5826;54.756;9.192;2023-11-21T10:17:51;9.30;90.10
11540;DHT22;5826;54.756;9.192;2023-11-21T10:20:24;9.30;90.00
11540;DHT22;5826;54.756;9.192;2023-11-21T10:22:51;9.30;90.00
11540;DHT22;5826;54.756;9.192;2023-11-21T10:25:16;9.30;90.00
11540;DHT22;5826;54.756;9.192;2023-11-21T10:27:47;9.20;89.80
11540;DHT22;5826;54.756;9.192;2023-11-21T10:30:13;9.20;90.10
11540;DHT22;5826;54.756;9.192;2023-11-21T10:32:39;9.30;90.10
11540;DHT22;5826;54.756;9.192;2023-11-21T10:35:06;9.30;90.00
11540;DHT22;5826;54.756;9.192;2023-11-21T10:37:38;9.30;88.90
11540;DHT22;5826;54.756;9.192;2023-11-21T10:40:11;9.30;89.50
11540;DHT22;5826;54.756;9.192;2023-11-21T10:42:40;9.30;89.80
11540;DHT22;5826;54.756;9.192;2023-11-21T10:45:06;9.30;89.80
11540;DHT22;5826;54.756;9.192;2023-11-21T10:47:41;9.30;89.60
11540;DHT22;5826;54.756;9.192;2023-11-21T10:50:08;9.30;89.40
11540;DHT22;5826;54.756;9.192;2023-11-21T10:52:40;9.30;89.20
11540;DHT22;5826;54.756;9.192;2023-11-21T10:55:17;9.30;89.80
11540;DHT22;5826;54.756;9.192;2023-11-21T10:57:45;9.30;89.90
11540;DHT22;5826;54.756;9.192;2023-11-21T11:00:14;9.40;89.90
11540;DHT22;5826;54.756;9.192;2023-11-21T11:02:40;9.40;89.60
11540;DHT22;5826;54.756;9.192;2023-11-21T11:05:07;9.50;89.60
11540;DHT22;5826;54.756;9.192;2023-11-21T11:07:37;9.50;89.30
11540;DHT22;5826;54.756;9.192;2023-11-21T11:10:04;9.60;89.00
11540;DHT22;5826;54.756;9.192;2023-11-21T11:12:30;9.50;88.60
11540;DHT22;5826;54.756;9.192;2023-11-21T11:14:56;9.50;88.50
11540;DHT22;5826;54.756;9.192;2023-11-21T11:17:23;9.40;89.00
11540;DHT22;5826;54.756;9.192;2023-11-21T11:19:48;9.30;89.10
11540;DHT22;5826;54.756;9.192;2023-11-21T11:25:33;9.20;90.00
11540;DHT22;5826;54.756;9.192;2023-11-21T11:28:07;9.10;90.10
11540;DHT22;5826;54.756;9.192;2023-11-21T11:36:04;9.00;90.20
11540;DHT22;5826;54.756;9.192;2023-11-21T11:38:32;9.00;90.20
11540;DHT22;5826;54.756;9.192;2023-11-21T11:41:05;9.10;90.20
11540;DHT22;5826;54.756;9.192;2023-11-21T11:43:31;9.20;90.10
11540;DHT22;5826;54.756;9.192;2023-11-21T11:45:59;9.20;89.60
11540;DHT22;5826;54.756;9.192;2023-11-21T11:48:25;9.30;89.50
11540;DHT22;5826;54.756;9.192;2023-11-21T11:51:10;9.20;89.20
11540;DHT22;5826;54.756;9.192;2023-11-21T11:53:41;9.30;89.70
11540;DHT22;5826;54.756;9.192;2023-11-21T11:56:33;9.30;87.80
11540;DHT22;5826;54.756;9.192;2023-11-21T11:59:04;9.20;88.80
11540;DHT22;5826;54.756;9.192;2023-11-21T12:01:32;9.20;89.50
11540;DHT22;5826;54.756;9.192;2023-11-21T12:06:41;9.20;89.60
11540;DHT22;5826;54.756;9.192;2023-11-21T12:09:06;9.30;89.60
11540;DHT22;5826;54.756;9.192;2023-11-21T12:11:33;9.30;89.30
11540;DHT22;5826;54.756;9.192;2023-11-21T12:14:01;9.40;88.80
11540;DHT22;5826;54.756;9.192;2023-11-21T12:16:27;9.50;89.10
11540;DHT22;5826;54.756;9.192;2023-11-21T12:18:53;9.50;87.50
11540;DHT22;5826;54.756;9.192;2023-11-21T12:21:20;9.50;88.10
11540;DHT22;5826;54.756;9.192;2023-11-21T12:23:45;9.60;87.70
11540;DHT22;5826;54.756;9.192;2023-11-21T12:26:13;9.60;87.90
11540;DHT22;5826;54.756;9.192;2023-11-21T12:28:39;9.60;88.10
11540;DHT22;5826;54.756;9.192;2023-11-21T12:31:04;9.50;87.80
11540;DHT22;5826;54.756;9.192;2023-11-21T12:33:34;9.50;88.30
11540;DHT22;5826;54.756;9.192;2023-11-21T12:36:00;9.40;88.40
11540;DHT22;5826;54.756;9.192;2023-11-21T12:38:34;9.40;88.30
11540;DHT22;5826;54.756;9.192;2023-11-21T12:41:00;9.40;88.30
11540;DHT22;5826;54.756;9.192;2023-11-21T12:43:25;9.50;88.20
11540;DHT22;5826;54.756;9.192;2023-11-21T12:45:51;9.50;87.90
11540;DHT22;5826;54.756;9.192;2023-11-21T12:48:29;9.70;88.30
11540;DHT22;5826;54.756;9.192;2023-11-21T12:50:57;10.90;90.70
11540;DHT22;5826;54.756;9.192;2023-11-21T12:53:25;13.10;83.90
11540;DHT22;5826;54.756;9.192;2023-11-21T12:55:51;15.20;75.70
11540;DHT22;5826;54.756;9.192;2023-11-21T12:58:17;15.90;75.20
11540;DHT22;5826;54.756;9.192;2023-11-21T13:00:47;16.90;77.30
11540;DHT22;5826;54.756;9.192;2023-11-21T13:03:15;17.60;76.20
11540;DHT22;5826;54.756;9.192;2023-11-21T13:05:51;17.20;78.80
11540;DHT22;5826;54.756;9.192;2023-11-21T13:08:19;16.20;82.90
11540;DHT22;5826;54.756;9.192;2023-11-21T13:10:49;15.30;86.30
11540;DHT22;5826;54.756;9.192;2023-11-21T13:13:15;14.70;90.50
11540;DHT22;5826;54.756;9.192;2023-11-21T13:15:47;14.40;91.80
11540;DHT22;5826;54.756;9.192;2023-11-21T13:18:14;14.50;92.20
11540;DHT22;5826;54.756;9.192;2023-11-21T13:20:40;14.20;91.40
11540;DHT22;5826;54.756;9.192;2023-11-21T13:23:10;13.70;91.60
11540;DHT22;5826;54.756;9.192;2023-11-21T13:25:41;13.20;92.30
11540;DHT22;5826;54.756;9.192;2023-11-21T13:28:07;12.70;92.40
11540;DHT22;5826;54.756;9.192;2023-11-21T13:30:35;12.10;92.30
11540;DHT22;5826;54.756;9.192;2023-11-21T13:33:04;11.60;92.70
11540;DHT22;5826;54.756;9.192;2023-11-21T13:35:35;11.20;93.10
11540;DHT22;5826;54.756;9.192;2023-11-21T13:38:11;10.90;93.40
11540;DHT22;5826;54.756;9.192;2023-11-21T13:40:47;10.60;93.70
11540;DHT22;5826;54.756;9.192;2023-11-21T13:43:16;10.40;94.00
11540;DHT22;5826;54.756;9.192;2023-11-21T13:45:44;10.30;94.30
11540;DHT22;5826;54.756;9.192;2023-11-21T13:48:10;10.20;94.00
11540;DHT22;5826;54.756;9.192;2023-11-21T13:50:42;10.10;93.70
11540;DHT22;5826;54.756;9.192;2023-11-21T13:53:14;10.00;93.50
11540;DHT22;5826;54.756;9.192;2023-11-21T13:55:52;9.90;92.70
11540;DHT22;5826;54.756;9.192;2023-11-21T13:58:23;9.90;92.80
11540;DHT22;5826;54.756;9.192;2023-11-21T14:01:08;9.80;92.20
11540;DHT22;5826;54.756;9.192;2023-11-21T14:03:50;9.70;91.80
11540;DHT22;5826;54.756;9.192;2023-11-21T14:06:22;9.60;91.50
11540;DHT22;5826;54.756;9.192;2023-11-21T14:08:52;9.60;91.10
11540;DHT22;5826;54.756;9.192;2023-11-21T14:11:22;9.50;91.10
11540;DHT22;5826;54.756;9.192;2023-11-21T14:13:48;9.40;90.80
11540;DHT22;5826;54.756;9.192;2023-11-21T14:16:14;9.30;90.90
11540;DHT22;5826;54.756;9.192;2023-11-21T14:18:42;9.20;90.70
11540;DHT22;5826;54.756;9.192;2023-11-21T14:21:18;9.20;90.60
11540;DHT22;5826;54.756;9.192;2023-11-21T14:23:44;9.10;90.80
11540;DHT22;5826;54.756;9.192;2023-11-21T14:26:11;9.00;90.70
11540;DHT22;5826;54.756;9.192;2023-11-21T14:28:40;8.90;90.70
11540;DHT22;5826;54.756;9.192;2023-11-21T14:31:07;8.90;90.60
11540;DHT22;5826;54.756;9.192;2023-11-21T14:33:33;8.80;90.60
11540;DHT22;5826;54.756;9.192;2023-11-21T14:35:58;8.80;90.30
11540;DHT22;5826;54.756;9.192;2023-11-21T14:38:24;8.70;90.50
11540;DHT22;5826;54.756;9.192;2023-11-21T14:40:49;8.70;90.50
11540;DHT22;5826;54.756;9.192;2023-11-21T14:43:15;8.60;90.50
11540;DHT22;5826;54.756;9.192;2023-11-21T14:45:42;8.60;90.40
11540;DHT22;5826;54.756;9.192;2023-11-21T14:48:07;8.50;90.40
11540;DHT22;5826;54.756;9.192;2023-11-21T14:50:41;8.50;90.30
11540;DHT22;5826;54.756;9.192;2023-11-21T14:53:08;8.50;90.30
11540;DHT22;5826;54.756;9.192;2023-11-21T14:55:34;8.50;90.40
11540;DHT22;5826;54.756;9.192;2023-11-21T14:58:15;8.40;90.20
11540;DHT22;5826;54.756;9.192;2023-11-21T15:00:47;8.40;90.20
11540;DHT22;5826;54.756;9.192;2023-11-21T15:03:13;8.40;90.10
11540;DHT22;5826;54.756;9.192;2023-11-21T15:05:57;8.40;90.10
11540;DHT22;5826;54.756;9.192;2023-11-21T15:08:23;8.30;90.10
11540;DHT22;5826;54.756;9.192;2023-11-21T15:10:57;8.30;90.20
11540;DHT22;5826;54.756;9.192;2023-11-21T15:13:22;8.30;90.00
11540;DHT22;5826;54.756;9.192;2023-11-21T15:15:52;8.20;90.10
11540;DHT22;5826;54.756;9.192;2023-11-21T15:18:20;8.20;90.00
11540;DHT22;5826;54.756;9.192;2023-11-21T15:20:45;8.20;90.10
11540;DHT22;5826;54.756;9.192;2023-11-21T15:23:11;8.20;90.10
11540;DHT22;5826;54.756;9.192;2023-11-21T15:25:38;8.20;90.20
11540;DHT22;5826;54.756;9.192;2023-11-21T15:28:04;8.20;90.20
11540;DHT22;5826;54.756;9.192;2023-11-21T15:30:30;8.10;90.10
11540;DHT22;5826;54.756;9.192;2023-11-21T15:32:58;8.10;90.10
11540;DHT22;5826;54.756;9.192;2023-11-21T15:35:23;8.10;90.00
11540;DHT22;5826;54.756;9.192;2023-11-21T15:37:49;8.10;90.10
11540;DHT22;5826;54.756;9.192;2023-11-21T15:40:14;8.10;90.10
11540;DHT22;5826;54.756;9.192;2023-11-21T15:42:42;8.00;90.20
11540;DHT22;5826;54.756;9.192;2023-11-21T15:45:07;8.00;90.10
11540;DHT22;5826;54.756;9.192;2023-11-21T15:47:37;8.00;90.20
11540;DHT22;5826;54.756;9.192;2023-11-21T15:50:03;7.90;90.10
11540;DHT22;5826;54.756;9.192;2023-11-21T15:52:33;7.90;89.70
11540;DHT22;5826;54.756;9.192;2023-11-21T15:54:59;7.90;89.80
11540;DHT22;5826;54.756;9.192;2023-11-21T15:57:25;7.90;89.40
11540;DHT22;5826;54.756;9.192;2023-11-21T15:59:50;7.90;89.80
11540;DHT22;5826;54.756;9.192;2023-11-21T16:02:16;7.90;89.50
11540;DHT22;5826;54.756;9.192;2023-11-21T16:04:42;8.00;89.60
11540;DHT22;5826;54.756;9.192;2023-11-21T16:07:11;7.90;89.60
11540;DHT22;5826;54.756;9.192;2023-11-21T16:09:37;8.00;89.80
11540;DHT22;5826;54.756;9.192;2023-11-21T16:12:05;7.90;89.30
11540;DHT22;5826;54.756;9.192;2023-11-21T16:14:36;7.90;89.60